createdAt,value
2018-09-22T00:01:15.556Z,3.70
2018-09-22T00:03:44.458Z,3.63
2018-09-22T00:06:13.116Z,4.60
2018-09-22T00:08:41.775Z,3.30
2018-09-22T00:11:10.471Z,2.90
2018-09-22T00:13:39.204Z,3.43
2018-09-22T00:16:07.866Z,4.90
2018-09-22T00:18:36.654Z,2.57
2018-09-22T00:21:05.618Z,2.03
2018-09-22T00:23:34.304Z,5.37
2018-09-22T00:26:03.156Z,4.73
2018-09-22T00:28:31.834Z,4.47
2018-09-22T00:31:00.486Z,3.73
2018-09-22T00:33:29.158Z,4.33
2018-09-22T00:35:58.026Z,4.10
2018-09-22T00:38:26.690Z,3.20
2018-09-22T00:40:55.330Z,3.40
2018-09-22T00:43:24.011Z,1.87
2018-09-22T00:45:52.848Z,2.43
2018-09-22T00:48:21.556Z,3.47
2018-09-22T00:50:50.358Z,4.20
2018-09-22T00:53:18.999Z,2.23
2018-09-22T00:55:47.828Z,5.10
2018-09-22T00:58:16.510Z,3.67
2018-09-22T01:00:45.178Z,3.77
2018-09-22T01:03:13.892Z,3.10
2018-09-22T01:05:42.504Z,2.90
2018-09-22T01:08:11.117Z,5.70
2018-09-22T01:10:39.718Z,3.83
2018-09-22T01:13:08.382Z,2.23
2018-09-22T01:15:37.028Z,3.53
2018-09-22T01:18:05.730Z,5.37
2018-09-22T01:20:34.368Z,4.50
2018-09-22T01:23:03.360Z,4.77
2018-09-22T01:25:32.022Z,4.67
2018-09-22T01:28:00.680Z,1.77
2018-09-22T01:30:29.434Z,2.30
2018-09-22T01:32:58.042Z,4.47
2018-09-22T01:35:26.666Z,4.73
2018-09-22T01:37:55.512Z,3.50
2018-09-22T01:40:24.213Z,3.47
2018-09-22T01:42:52.994Z,6.23
2018-09-22T01:45:22.038Z,3.40
2018-09-22T01:47:51.066Z,4.90
2018-09-22T01:50:19.746Z,2.67
2018-09-22T01:52:48.556Z,3.73
2018-09-22T01:55:17.198Z,6.10
2018-09-22T01:57:45.856Z,3.33
2018-09-22T02:00:14.518Z,3.87
2018-09-22T02:02:43.148Z,4.77
2018-09-22T02:05:11.798Z,3.90
2018-09-22T02:07:40.496Z,3.43
2018-09-22T02:10:09.376Z,4.50
2018-09-22T02:12:38.106Z,3.07
2018-09-22T02:15:07.096Z,4.40
2018-09-22T02:17:35.761Z,3.87
2018-09-22T02:20:04.872Z,3.73
2018-09-22T02:22:33.518Z,3.03
2018-09-22T02:25:02.313Z,5.70
2018-09-22T02:27:31.036Z,4.73
2018-09-22T02:29:59.698Z,4.83
2018-09-22T02:32:28.321Z,2.27
2018-09-22T02:34:56.939Z,4.70
2018-09-22T02:37:25.635Z,1.73
2018-09-22T02:39:54.276Z,2.20
2018-09-22T02:42:23.074Z,5.63
2018-09-22T02:44:51.790Z,2.67
2018-09-22T02:47:20.408Z,2.63
2018-09-22T02:49:49.021Z,3.50
2018-09-22T02:52:17.863Z,4.03
2018-09-22T02:54:46.672Z,5.43
2018-09-22T02:57:15.414Z,3.63
2018-09-22T02:59:44.046Z,9.33
2018-09-22T03:02:13.250Z,2.43
2018-09-22T03:04:41.944Z,5.67
2018-09-22T03:07:10.556Z,2.57
2018-09-22T03:09:39.360Z,2.83
2018-09-22T03:12:08.022Z,4.90
2018-09-22T03:14:36.830Z,4.13
2018-09-22T03:17:05.534Z,4.87
2018-09-22T03:19:34.263Z,6.00
2018-09-22T03:22:03.036Z,5.70
2018-09-22T03:24:31.822Z,3.60
2018-09-22T03:27:00.475Z,2.73
2018-09-22T03:29:29.336Z,5.20
2018-09-22T03:31:57.966Z,2.40
2018-09-22T03:34:26.754Z,2.40
2018-09-22T03:36:55.788Z,4.57
2018-09-22T03:39:24.481Z,2.57
2018-09-22T03:41:53.115Z,4.43
2018-09-22T03:44:21.951Z,4.40
2018-09-22T03:46:50.647Z,4.03
2018-09-22T03:49:19.306Z,6.00
2018-09-22T03:51:47.999Z,3.13
2018-09-22T03:54:16.629Z,3.37
2018-09-22T03:56:45.317Z,4.83
2018-09-22T03:59:14.214Z,5.30
2018-09-22T04:01:42.959Z,4.23
2018-09-22T04:04:11.642Z,7.43
2018-09-22T04:06:40.303Z,5.97
2018-09-22T04:09:09.346Z,6.10
2018-09-22T04:11:38.006Z,4.57
2018-09-22T04:14:06.845Z,9.30
2018-09-22T04:16:35.623Z,4.23
2018-09-22T04:19:04.312Z,4.23
2018-09-22T04:21:32.980Z,7.60
2018-09-22T04:24:07.268Z,6.30
2018-09-22T04:26:36.051Z,7.47
2018-09-22T04:29:04.696Z,6.70
2018-09-22T04:31:33.337Z,3.57
2018-09-22T04:34:02.031Z,6.10
2018-09-22T04:36:30.690Z,6.07
2018-09-22T04:38:59.375Z,5.40
2018-09-22T04:41:28.032Z,6.17
2018-09-22T04:43:56.714Z,5.63
2018-09-22T04:46:25.426Z,5.60
2018-09-22T04:48:54.042Z,3.40
2018-09-22T04:51:22.667Z,5.07
2018-09-22T04:53:51.330Z,6.67
2018-09-22T04:56:20.025Z,3.60
2018-09-22T04:58:48.858Z,4.90
2018-09-22T05:01:17.502Z,3.27
2018-09-22T05:03:46.149Z,6.20
2018-09-22T05:06:14.819Z,4.60
2018-09-22T05:08:43.608Z,7.77
2018-09-22T05:11:12.317Z,7.43
2018-09-22T05:13:40.961Z,5.73
2018-09-22T05:16:09.789Z,2.87
2018-09-22T05:18:38.579Z,6.03
2018-09-22T05:21:07.492Z,3.77
2018-09-22T05:23:36.595Z,5.03
2018-09-22T05:26:05.231Z,5.07
2018-09-22T05:28:33.961Z,2.37
2018-09-22T05:31:03.202Z,6.37
2018-09-22T05:33:32.173Z,6.30
2018-09-22T05:36:00.817Z,4.33
2018-09-22T05:38:29.891Z,3.90
2018-09-22T05:40:58.565Z,3.47
2018-09-22T05:43:27.697Z,4.03
2018-09-22T05:45:56.935Z,3.83
2018-09-22T05:48:25.613Z,3.97
2018-09-22T05:50:54.399Z,5.40
2018-09-22T05:53:23.147Z,4.03
2018-09-22T05:55:51.849Z,2.50
2018-09-22T05:58:20.560Z,6.50
2018-09-22T06:00:49.313Z,5.83
2018-09-22T06:03:18.183Z,4.37
2018-09-22T06:05:47.387Z,3.47
2018-09-22T06:08:16.294Z,7.23
2018-09-22T06:10:45.317Z,9.40
2018-09-22T06:13:13.954Z,5.00
2018-09-22T06:15:42.855Z,5.30
2018-09-22T06:18:11.575Z,7.97
2018-09-22T06:20:40.833Z,5.23
2018-09-22T06:23:09.596Z,6.27
2018-09-22T06:25:38.402Z,5.63
2018-09-22T06:28:07.025Z,9.93
2018-09-22T06:30:35.869Z,4.80
2018-09-22T06:33:04.644Z,9.07
2018-09-22T06:35:33.429Z,5.07
2018-09-22T06:38:02.115Z,4.70
2018-09-22T06:40:30.841Z,5.07
2018-09-22T06:42:59.631Z,6.47
2018-09-22T06:45:28.349Z,6.33
2018-09-22T06:47:58.176Z,5.47
2018-09-22T06:50:27.640Z,4.37
2018-09-22T06:52:56.393Z,4.00
2018-09-22T06:55:25.287Z,7.30
2018-09-22T06:57:53.911Z,8.13
2018-09-22T07:00:22.689Z,8.93
2018-09-22T07:02:51.777Z,5.97
2018-09-22T07:05:20.869Z,6.97
2018-09-22T07:07:50.073Z,10.20
2018-09-22T07:10:18.862Z,6.87
2018-09-22T07:12:47.537Z,5.23
2018-09-22T07:15:16.841Z,8.93
2018-09-22T07:17:45.740Z,6.87
2018-09-22T07:20:14.847Z,8.17
2018-09-22T07:22:48.691Z,8.27
2018-09-22T07:25:17.544Z,6.50
2018-09-22T07:27:46.461Z,4.93
2018-09-22T07:30:15.157Z,7.00
2018-09-22T07:32:43.851Z,7.70
2018-09-22T07:35:12.511Z,5.93
2018-09-22T07:37:41.339Z,6.07
2018-09-22T07:40:10.001Z,9.60
2018-09-22T07:42:39.233Z,7.97
2018-09-22T07:45:08.035Z,9.27
2018-09-22T07:47:36.799Z,9.17
2018-09-22T07:50:05.786Z,5.97
2018-09-22T07:52:35.064Z,5.60
2018-09-22T07:55:04.418Z,7.57
2018-09-22T07:57:33.186Z,6.27
2018-09-22T08:00:02.685Z,8.37
2018-09-22T08:02:31.700Z,6.50
2018-09-22T08:05:00.376Z,7.63
2018-09-22T08:07:29.024Z,8.23
2018-09-22T08:09:57.685Z,8.53
2018-09-22T08:12:26.472Z,8.87
2018-09-22T08:14:55.204Z,6.97
2018-09-22T08:17:24.100Z,10.67
2018-09-22T08:19:52.798Z,11.40
2018-09-22T08:22:21.805Z,7.70
2018-09-22T08:24:50.920Z,3.00
2018-09-22T08:27:19.891Z,6.00
2018-09-22T08:29:48.765Z,9.13
2018-09-22T08:32:17.628Z,8.80
2018-09-22T08:34:46.334Z,5.33
2018-09-22T08:37:15.084Z,8.40
2018-09-22T08:39:43.773Z,7.93
2018-09-22T08:42:12.610Z,6.93
2018-09-22T08:44:41.422Z,6.77
2018-09-22T08:47:10.128Z,7.90
2018-09-22T08:49:39.058Z,5.27
2018-09-22T08:52:07.701Z,7.43
2018-09-22T08:54:36.497Z,11.37
2018-09-22T08:57:05.241Z,5.53
2018-09-22T08:59:33.927Z,10.83
2018-09-22T09:02:02.624Z,5.30
2018-09-22T09:04:31.434Z,9.37
2018-09-22T09:07:00.142Z,7.90
2018-09-22T09:09:28.805Z,6.37
2018-09-22T09:11:57.633Z,5.50
2018-09-22T09:14:26.274Z,5.73
2018-09-22T09:16:55.320Z,7.10
2018-09-22T09:19:23.940Z,4.80
2018-09-22T09:21:52.621Z,5.80
2018-09-22T09:24:21.479Z,4.33
2018-09-22T09:26:50.202Z,7.40
2018-09-22T09:29:18.853Z,6.60
2018-09-22T09:31:47.749Z,7.17
2018-09-22T09:34:16.466Z,7.60
2018-09-22T09:36:45.163Z,6.03
2018-09-22T09:39:13.839Z,4.80
2018-09-22T09:41:42.675Z,6.77
2018-09-22T09:44:11.343Z,9.57
2018-09-22T09:46:40.080Z,5.67
2018-09-22T09:49:08.768Z,5.77
2018-09-22T09:51:37.397Z,8.30
2018-09-22T09:54:06.051Z,5.60
2018-09-22T09:56:34.725Z,3.80
2018-09-22T09:59:03.455Z,4.83
2018-09-22T10:01:32.140Z,5.03
2018-09-22T10:04:00.875Z,6.53
2018-09-22T10:06:29.599Z,4.93
2018-09-22T10:08:58.265Z,5.27
2018-09-22T10:11:26.958Z,4.13
2018-09-22T10:13:55.594Z,4.37
2018-09-22T10:16:24.299Z,5.50
2018-09-22T10:18:52.988Z,5.40
2018-09-22T10:21:22.059Z,9.40
2018-09-22T10:23:50.755Z,4.63
2018-09-22T10:26:19.459Z,6.03
2018-09-22T10:28:48.235Z,6.57
2018-09-22T10:31:16.976Z,3.40
2018-09-22T10:33:45.640Z,5.27
2018-09-22T10:36:14.306Z,4.03
2018-09-22T10:38:43.177Z,5.20
2018-09-22T10:41:11.966Z,3.67
2018-09-22T10:43:40.757Z,6.90
2018-09-22T10:46:09.419Z,5.73
2018-09-22T10:48:38.203Z,4.40
2018-09-22T10:51:07.077Z,6.10
2018-09-22T10:53:35.787Z,3.93
2018-09-22T10:56:04.667Z,4.97
2018-09-22T10:58:33.913Z,2.77
2018-09-22T11:01:02.574Z,5.23
2018-09-22T11:03:31.298Z,7.20
2018-09-22T11:05:59.939Z,6.67
2018-09-22T11:08:29.809Z,6.77
2018-09-22T11:10:58.745Z,5.83
2018-09-22T11:13:27.521Z,2.90
2018-09-22T11:15:56.158Z,5.47
2018-09-22T11:18:25.017Z,3.60
2018-09-22T11:20:53.687Z,4.10
2018-09-22T11:23:22.462Z,3.40
2018-09-22T11:25:51.101Z,1.93
2018-09-22T11:28:19.790Z,7.47
2018-09-22T11:30:48.495Z,4.83
2018-09-22T11:33:17.981Z,4.47
2018-09-22T11:35:46.699Z,6.40
2018-09-22T11:38:15.614Z,5.40
2018-09-22T11:40:44.534Z,6.93
2018-09-22T11:43:13.508Z,6.60
2018-09-22T11:45:42.450Z,6.67
2018-09-22T11:48:11.134Z,3.37
2018-09-22T11:50:39.848Z,5.63
2018-09-22T11:53:08.616Z,5.33
2018-09-22T11:55:37.266Z,7.70
2018-09-22T11:58:05.988Z,7.10
2018-09-22T12:00:34.800Z,5.33
2018-09-22T12:03:03.653Z,7.77
2018-09-22T12:05:32.405Z,5.60
2018-09-22T12:08:01.326Z,3.57
2018-09-22T12:10:30.115Z,4.27
2018-09-22T12:12:58.829Z,7.43
2018-09-22T12:15:27.603Z,5.20
2018-09-22T12:17:56.523Z,7.10
2018-09-22T12:20:25.320Z,5.57
2018-09-22T12:22:54.025Z,9.50
2018-09-22T12:25:22.668Z,6.63
2018-09-22T12:27:51.485Z,6.00
2018-09-22T12:30:20.151Z,12.20
2018-09-22T12:32:48.901Z,8.97
2018-09-22T12:35:17.901Z,8.07
2018-09-22T12:37:47.029Z,6.80
2018-09-22T12:40:15.693Z,6.37
2018-09-22T12:42:44.303Z,6.83
2018-09-22T12:45:13.008Z,5.33
2018-09-22T12:47:41.721Z,6.63
2018-09-22T12:50:10.469Z,5.33
2018-09-22T12:52:39.315Z,3.40
2018-09-22T12:55:08.141Z,6.30
2018-09-22T12:57:36.881Z,11.00
2018-09-22T13:00:06.132Z,6.73
2018-09-22T13:02:34.938Z,5.10
2018-09-22T13:05:03.670Z,5.77
2018-09-22T13:07:32.899Z,5.97
2018-09-22T13:10:01.930Z,6.17
2018-09-22T13:12:30.651Z,6.53
2018-09-22T13:14:59.274Z,3.80
2018-09-22T13:17:28.035Z,4.83
2018-09-22T13:19:56.820Z,4.17
2018-09-22T13:22:25.511Z,5.53
2018-09-22T13:24:54.380Z,5.13
2018-09-22T13:27:23.083Z,2.60
2018-09-22T13:29:51.917Z,4.90
2018-09-22T13:32:20.662Z,5.47
2018-09-22T13:34:49.280Z,6.40
2018-09-22T13:37:17.989Z,6.60
2018-09-22T13:39:46.673Z,7.37
2018-09-22T13:42:15.645Z,7.00
2018-09-22T13:44:44.361Z,3.80
2018-09-22T13:47:12.994Z,3.30
2018-09-22T13:49:41.817Z,4.80
2018-09-22T13:52:10.564Z,4.77
2018-09-22T13:54:39.243Z,7.20
2018-09-22T13:57:08.009Z,3.67
2018-09-22T13:59:36.782Z,5.50
2018-09-22T14:02:05.617Z,7.77
2018-09-22T14:04:34.307Z,9.07
2018-09-22T14:07:03.003Z,9.47
2018-09-22T14:09:31.647Z,6.33
2018-09-22T14:12:00.549Z,8.60
2018-09-22T14:14:29.212Z,7.90
2018-09-22T14:16:58.129Z,7.97
2018-09-22T14:19:27.249Z,4.00
2018-09-22T14:21:55.990Z,7.63
2018-09-22T14:24:24.681Z,6.87
2018-09-22T14:26:53.406Z,5.47
2018-09-22T14:29:22.350Z,4.30
2018-09-22T14:31:51.487Z,8.00
2018-09-22T14:34:20.305Z,4.50
2018-09-22T14:36:49.243Z,2.67
2018-09-22T14:39:18.067Z,3.90
2018-09-22T14:41:46.933Z,8.07
2018-09-22T14:44:15.592Z,5.80
2018-09-22T14:46:44.620Z,5.80
2018-09-22T14:49:13.335Z,7.60
2018-09-22T14:51:42.046Z,4.23
2018-09-22T14:54:10.697Z,5.67
2018-09-22T14:56:39.371Z,6.57
2018-09-22T14:59:08.043Z,8.53
2018-09-22T15:01:36.766Z,8.70
2018-09-22T15:04:05.819Z,5.63
2018-09-22T15:06:34.786Z,4.70
2018-09-22T15:09:04.741Z,6.67
2018-09-22T15:11:33.381Z,7.27
2018-09-22T15:14:02.292Z,6.57
2018-09-22T15:16:30.981Z,6.37
2018-09-22T15:18:59.648Z,5.13
2018-09-22T15:21:28.460Z,4.00
2018-09-22T15:23:57.447Z,3.67
2018-09-22T15:26:26.131Z,5.50
2018-09-22T15:28:55.040Z,5.30
2018-09-22T15:31:23.903Z,3.70
2018-09-22T15:33:52.636Z,6.63
2018-09-22T15:36:21.337Z,4.30
2018-09-22T15:38:50.043Z,7.80
2018-09-22T15:41:18.833Z,5.13
2018-09-22T15:43:47.520Z,6.37
2018-09-22T15:46:16.351Z,4.67
2018-09-22T15:48:45.045Z,9.07
2018-09-22T15:51:13.981Z,6.80
2018-09-22T15:53:42.689Z,7.37
2018-09-22T15:56:11.329Z,4.30
2018-09-22T15:58:39.999Z,6.53
2018-09-22T16:01:08.860Z,6.80
2018-09-22T16:03:37.496Z,5.80
2018-09-22T16:06:06.165Z,6.63
2018-09-22T16:08:34.877Z,5.20
2018-09-22T16:11:03.899Z,5.73
2018-09-22T16:13:32.675Z,5.03
2018-09-22T16:16:01.430Z,4.93
2018-09-22T16:18:30.262Z,4.63
2018-09-22T16:20:59.027Z,6.10
2018-09-22T16:23:27.663Z,5.67
2018-09-22T16:25:56.412Z,9.93
2018-09-22T16:28:25.531Z,5.60
2018-09-22T16:30:54.185Z,7.37
2018-09-22T16:33:22.995Z,5.43
2018-09-22T16:35:51.704Z,4.73
2018-09-22T16:38:20.369Z,4.03
2018-09-22T16:40:49.256Z,5.40
2018-09-22T16:43:17.932Z,5.03
2018-09-22T16:45:46.647Z,3.87
2018-09-22T16:48:15.514Z,3.67
2018-09-22T16:50:44.176Z,5.43
2018-09-22T16:53:12.814Z,4.87
2018-09-22T16:55:41.487Z,3.40
2018-09-22T16:58:10.464Z,3.63
2018-09-22T17:00:39.400Z,5.27
2018-09-22T17:03:08.512Z,4.73
2018-09-22T17:05:37.334Z,3.20
2018-09-22T17:08:06.322Z,3.97
2018-09-22T17:10:35.196Z,2.53
2018-09-22T17:13:03.804Z,3.07
2018-09-22T17:15:32.553Z,4.87
2018-09-22T17:18:01.192Z,3.50
2018-09-22T17:20:29.892Z,3.57
2018-09-22T17:22:58.508Z,4.43
2018-09-22T17:25:27.286Z,6.30
2018-09-22T17:27:56.250Z,3.83
2018-09-22T17:30:25.060Z,3.87
2018-09-22T17:32:53.886Z,4.20
2018-09-22T17:35:22.714Z,2.70
2018-09-22T17:37:51.419Z,2.80
2018-09-22T17:40:20.296Z,6.23
2018-09-22T17:42:49.216Z,3.37
2018-09-22T17:45:18.133Z,6.27
2018-09-22T17:47:46.790Z,3.93
2018-09-22T17:50:15.596Z,3.53
2018-09-22T17:52:44.494Z,4.10
2018-09-22T17:55:13.140Z,3.53
2018-09-22T17:57:41.837Z,3.80
2018-09-22T18:00:10.675Z,4.07
2018-09-22T18:02:39.412Z,7.00
2018-09-22T18:05:08.196Z,3.90
2018-09-22T18:07:36.828Z,2.80
2018-09-22T18:10:05.618Z,6.57
2018-09-22T18:12:34.271Z,4.23
2018-09-22T18:15:02.921Z,3.00
2018-09-22T18:17:31.651Z,5.50
2018-09-22T18:20:00.396Z,6.27
2018-09-22T18:22:29.249Z,4.27
2018-09-22T18:24:58.055Z,3.20
2018-09-22T18:27:26.765Z,4.00
2018-09-22T18:29:55.438Z,4.87
2018-09-22T18:32:24.321Z,5.50
2018-09-22T18:34:53.016Z,5.00
2018-09-22T18:37:21.927Z,3.97
2018-09-22T18:39:51.366Z,5.80
2018-09-22T18:42:20.025Z,3.73
2018-09-22T18:44:49.358Z,5.67
2018-09-22T18:47:17.974Z,3.90
2018-09-22T18:49:46.868Z,5.37
2018-09-22T18:52:15.645Z,4.43
2018-09-22T18:54:44.490Z,5.33
2018-09-22T18:57:13.478Z,5.13
2018-09-22T18:59:42.478Z,4.13
2018-09-22T19:02:11.540Z,4.50
2018-09-22T19:04:40.243Z,8.93
2018-09-22T19:07:09.026Z,5.17
2018-09-22T19:09:37.934Z,4.30
2018-09-22T19:12:06.928Z,4.93
2018-09-22T19:14:43.928Z,5.00
2018-09-22T19:17:18.033Z,7.87
2018-09-22T19:19:49.648Z,4.43
2018-09-22T19:22:26.399Z,5.77
2018-09-22T19:25:00.166Z,7.27
2018-09-22T19:27:48.182Z,5.43
2018-09-22T19:30:28.034Z,4.83
2018-09-22T19:33:03.054Z,5.97
2018-09-22T19:35:35.354Z,5.00
2018-09-22T19:38:08.853Z,5.30
2018-09-22T19:41:11.645Z,5.13
2018-09-22T19:43:47.016Z,6.50
2018-09-22T19:46:20.197Z,4.90
2018-09-22T19:48:56.212Z,5.67
2018-09-22T19:51:27.147Z,5.13
2018-09-22T19:53:57.085Z,5.10
2018-09-22T19:56:25.812Z,4.83
2018-09-22T19:58:54.634Z,5.23
2018-09-22T20:01:23.569Z,6.87
2018-09-22T20:03:52.322Z,6.67
2018-09-22T20:06:21.368Z,6.40
2018-09-22T20:08:50.007Z,5.63
2018-09-22T20:11:19.034Z,5.03
2018-09-22T20:13:47.792Z,6.03
2018-09-22T20:16:16.506Z,6.37
2018-09-22T20:18:45.271Z,4.87
2018-09-22T20:21:13.888Z,6.90
2018-09-22T20:23:42.608Z,6.27
2018-09-22T20:26:11.282Z,4.47
2018-09-22T20:28:39.950Z,6.57
2018-09-22T20:31:08.659Z,6.27
2018-09-22T20:33:37.382Z,4.47
2018-09-22T20:36:06.367Z,4.07
2018-09-22T20:38:34.996Z,4.07
2018-09-22T20:41:03.753Z,6.00
2018-09-22T20:43:32.638Z,5.63
2018-09-22T20:46:01.422Z,3.20
2018-09-22T20:48:30.098Z,5.50
2018-09-22T20:50:58.764Z,6.07
2018-09-22T20:53:27.452Z,4.90
2018-09-22T20:55:56.201Z,4.60
2018-09-22T20:58:25.124Z,5.40
2018-09-22T21:00:53.928Z,6.90
2018-09-22T21:03:22.561Z,5.90
2018-09-22T21:05:51.512Z,3.83
2018-09-22T21:08:20.199Z,4.57
2018-09-22T21:10:49.218Z,5.93
2018-09-22T21:13:17.863Z,4.93
2018-09-22T21:15:46.946Z,9.90
2018-09-22T21:18:15.646Z,6.90
2018-09-22T21:20:44.359Z,5.67
2018-09-22T21:23:13.008Z,7.60
2018-09-22T21:25:41.730Z,4.60
2018-09-22T21:28:10.379Z,7.20
2018-09-22T21:30:39.502Z,5.43
2018-09-22T21:33:08.634Z,6.37
2018-09-22T21:35:37.312Z,6.27
2018-09-22T21:38:06.493Z,8.00
2018-09-22T21:40:35.193Z,7.57
2018-09-22T21:43:03.951Z,9.53
2018-09-22T21:45:32.721Z,8.07
2018-09-22T21:48:01.466Z,8.13
2018-09-22T21:50:30.154Z,8.73
2018-09-22T21:52:58.964Z,7.70
2018-09-22T21:55:27.643Z,11.63
2018-09-22T21:57:56.313Z,9.20
2018-09-22T22:00:25.044Z,10.37
2018-09-22T22:02:53.837Z,9.90
2018-09-22T22:05:22.578Z,9.87
2018-09-22T22:07:51.443Z,10.00
2018-09-22T22:10:20.272Z,12.73
2018-09-22T22:12:48.975Z,9.70
2018-09-22T22:15:17.700Z,10.33
2018-09-22T22:17:46.502Z,11.43
2018-09-22T22:20:15.194Z,12.70
2018-09-22T22:22:43.868Z,11.63
2018-09-22T22:25:12.702Z,11.60
2018-09-22T22:27:41.534Z,11.87
2018-09-22T22:30:11.120Z,11.70
2018-09-22T22:32:39.812Z,15.07
2018-09-22T22:35:08.604Z,12.10
2018-09-22T22:37:37.565Z,13.50
2018-09-22T22:40:06.863Z,12.57
2018-09-22T22:42:35.758Z,12.33
2018-09-22T22:45:04.570Z,13.23
2018-09-22T22:47:33.224Z,14.20
2018-09-22T22:50:02.097Z,13.03
2018-09-22T22:52:30.811Z,13.27
2018-09-22T22:54:59.530Z,12.83
2018-09-22T22:57:28.159Z,14.57
2018-09-22T22:59:56.982Z,12.13
2018-09-22T23:02:25.656Z,13.00
2018-09-22T23:04:54.807Z,14.13
2018-09-22T23:07:23.705Z,13.17
2018-09-22T23:09:52.573Z,13.30
2018-09-22T23:12:21.447Z,13.40
2018-09-22T23:14:50.233Z,13.03
2018-09-22T23:17:18.931Z,13.20
2018-09-22T23:19:47.621Z,12.73
2018-09-22T23:22:16.372Z,13.20
2018-09-22T23:24:45.056Z,13.43
2018-09-22T23:27:13.805Z,12.70
2018-09-22T23:29:42.495Z,13.47
2018-09-22T23:32:11.134Z,15.63
2018-09-22T23:34:39.892Z,13.17
2018-09-22T23:37:08.535Z,12.40
2018-09-22T23:39:37.442Z,13.57
2018-09-22T23:42:06.266Z,12.20
2018-09-22T23:44:35.284Z,12.60
2018-09-22T23:47:04.174Z,13.80
2018-09-22T23:49:32.835Z,14.97
2018-09-22T23:52:01.703Z,13.20
2018-09-22T23:54:30.342Z,13.20
2018-09-22T23:56:59.099Z,12.83
2018-09-22T23:59:27.737Z,13.87
